logo
Rechercher aéroport 
image banner adimage banner adimage banner ad
image banner ad

MZCF - Matthew Spain Airstrip

Situé à , Belize

ICAO - , IATA -

Données fournies par Airmate  

Information générale

Coordonnées: N17°11'10" W89°0'34"
Élévation : 180 feet MSL.
 
Voir autres Aéroports à Cayo District

Données opérationnelles

Special qualification required
Heure actuelle UTC:
Heure actuelle locale:
Météo à : - ( 0 km )
METAR: UAII 231626Z 34002MPS 1200 R10/P2000 SHSN BR SCT012 OVC023CB M03/M04 Q1027 NOSIG RMK QFE735/0980
Voir NOTAMs / SUP AIP / TFR affectant cet aéroport [VIEW]
Fréquences de communication: [VIEW]

Pistes:

Identifiant RWYQFULongueur (ft)Largeur (ft)SurfaceLDA (ft)
08228036UNK
26228036UNK

Coordonnées de l'aéroport

Adresse: Belize

Vue satellite de MZCF